Time;durP1;ratioP1;P1;durP2;ratioP2;P2;SDS_P1;SDS_P2;PMS_P1;PMS_P2;Temp;Humidity;BMP_temperature;BMP_pressure;BME280_temperature;BME280_humidity;BME280_pressure;Samples;Min_cycle;Max_cycle;Signal;HPM_P1;HPM_P2
2023/02/08 00:01:20;;;;;;;30.67;13.95;;;-5.00;99.90;;;;;;4160982;28;20037;-70
2023/02/08 00:03:21;;;;;;;35.80;14.98;;;-5.10;99.90;;;;;;4179753;28;20456;-64
2023/02/08 00:05:22;;;;;;;30.55;13.77;;;-5.10;99.90;;;;;;4178446;28;20041;-70
2023/02/08 00:07:24;;;;;;;36.10;14.93;;;-5.10;99.90;;;;;;4178455;28;20095;-75
2023/02/08 00:09:25;;;;;;;30.05;14.70;;;-5.10;99.90;;;;;;4162904;28;20127;-64
2023/02/08 00:11:26;;;;;;;32.13;13.88;;;-5.10;99.90;;;;;;4163381;28;20400;-64
2023/02/08 00:13:28;;;;;;;35.55;13.85;;;-5.10;99.90;;;;;;4162999;28;20033;-63
2023/02/08 00:15:29;;;;;;;34.15;14.55;;;-5.10;99.90;;;;;;4162912;28;20025;-70
2023/02/08 00:17:30;;;;;;;30.67;14.32;;;-5.20;99.90;;;;;;4163631;28;20033;-72
2023/02/08 00:19:31;;;;;;;32.90;14.38;;;-5.20;99.90;;;;;;4162670;28;20033;-63
2023/02/08 00:21:32;;;;;;;34.35;15.15;;;-5.20;99.90;;;;;;4146010;28;20096;-64
2023/02/08 00:23:33;;;;;;;33.45;15.55;;;-5.30;99.90;;;;;;4162547;28;20029;-64
2023/02/08 00:25:35;;;;;;;33.75;14.63;;;-5.30;99.90;;;;;;4163905;28;20041;-75
2023/02/08 00:27:36;;;;;;;32.58;12.85;;;-5.30;99.90;;;;;;4162378;28;20478;-64
2023/02/08 00:29:37;;;;;;;32.33;13.45;;;-5.40;99.90;;;;;;4173499;28;20060;-75
2023/02/08 00:31:39;;;;;;;29.75;13.63;;;-5.40;99.90;;;;;;4167245;28;20473;-72
2023/02/08 00:33:40;;;;;;;31.23;13.02;;;-5.40;99.90;;;;;;4163629;28;20792;-75
2023/02/08 00:35:41;;;;;;;33.35;14.35;;;-5.40;99.90;;;;;;4162073;28;20103;-65
2023/02/08 00:37:42;;;;;;;31.58;13.32;;;-5.50;99.90;;;;;;4160316;28;20068;-63
2023/02/08 00:39:43;;;;;;;32.17;14.00;;;-5.50;99.90;;;;;;4179169;28;20102;-68
2023/02/08 00:41:44;;;;;;;31.70;13.73;;;-5.50;99.90;;;;;;4178844;28;20420;-65
2023/02/08 00:43:45;;;;;;;40.58;14.02;;;-5.50;99.90;;;;;;4179384;28;20025;-64
2023/02/08 00:45:46;;;;;;;29.35;13.40;;;-5.60;99.90;;;;;;4178774;28;20029;-77
2023/02/08 00:47:47;;;;;;;31.38;13.43;;;-5.60;99.90;;;;;;4163916;28;20456;-65
2023/02/08 00:49:49;;;;;;;31.75;14.55;;;-5.60;99.90;;;;;;4162239;28;20076;-75
2023/02/08 00:51:50;;;;;;;32.30;14.13;;;-5.70;99.90;;;;;;4162936;28;20033;-67
2023/02/08 00:53:51;;;;;;;31.70;14.40;;;-5.70;99.90;;;;;;4173462;28;20444;-64
2023/02/08 00:55:54;;;;;;;37.00;14.85;;;-5.70;99.90;;;;;;4178763;28;20459;-66
2023/02/08 00:57:55;;;;;;;34.72;15.15;;;-5.70;99.90;;;;;;4178332;28;20037;-64
2023/02/08 00:59:56;;;;;;;29.77;13.68;;;-5.80;99.90;;;;;;4179608;28;20462;-72
2023/02/08 01:01:57;;;;;;;30.48;13.90;;;-5.80;99.90;;;;;;4177898;28;20103;-64
2023/02/08 01:03:58;;;;;;;35.00;14.15;;;-5.80;99.90;;;;;;4172408;28;20041;-64
2023/02/08 01:06:01;;;;;;;34.50;14.88;;;-5.80;99.90;;;;;;4161735;28;20092;-64
2023/02/08 01:08:03;;;;;;;30.65;13.75;;;-5.90;99.90;;;;;;4168737;28;20527;-68
2023/02/08 01:10:05;;;;;;;38.55;14.40;;;-5.90;99.90;;;;;;4176098;28;20036;-75
2023/02/08 01:12:06;;;;;;;34.47;14.65;;;-5.90;99.90;;;;;;4178734;28;20465;-73
2023/02/08 01:14:08;;;;;;;27.20;12.60;;;-6.00;99.90;;;;;;4178899;28;20021;-74
2023/02/08 01:16:15;;;;;;;31.58;13.27;;;-6.00;99.90;;;;;;4174708;28;20045;-73
2023/02/08 01:18:16;;;;;;;35.80;14.10;;;-6.10;99.90;;;;;;4162514;28;20087;-74
2023/02/08 01:20:17;;;;;;;28.50;12.60;;;-6.10;99.90;;;;;;4161533;28;20395;-73
2023/02/08 01:22:18;;;;;;;32.03;13.70;;;-6.10;99.90;;;;;;4162250;28;20053;-62
2023/02/08 01:24:19;;;;;;;25.13;11.88;;;-6.10;99.90;;;;;;4161743;28;20025;-71
2023/02/08 01:26:22;;;;;;;32.72;13.70;;;-6.10;99.90;;;;;;4162743;28;20079;-65
2023/02/08 01:28:23;;;;;;;30.08;12.95;;;-6.10;99.90;;;;;;4143800;28;20038;-63
2023/02/08 01:30:25;;;;;;;30.10;13.63;;;-6.20;99.90;;;;;;4162692;28;20033;-64
2023/02/08 01:32:26;;;;;;;29.45;13.18;;;-6.20;99.90;;;;;;4143649;28;20458;-64
2023/02/08 01:34:27;;;;;;;34.38;14.13;;;-6.20;99.90;;;;;;4171851;28;20087;-63
2023/02/08 01:36:29;;;;;;;31.13;13.65;;;-6.30;99.90;;;;;;4177981;28;20077;-62
2023/02/08 01:38:31;;;;;;;35.72;14.82;;;-6.30;99.90;;;;;;4179108;28;20032;-63
2023/02/08 01:40:32;;;;;;;28.70;12.40;;;-6.30;99.90;;;;;;4177613;28;20029;-70
2023/02/08 01:42:33;;;;;;;27.02;13.65;;;-6.40;99.90;;;;;;4165702;28;20049;-64
2023/02/08 01:44:59;;;;;;;26.10;11.77;;;-6.40;99.90;;;;;;4161839;28;20030;-64
2023/02/08 01:47:00;;;;;;;27.02;11.65;;;-6.50;99.90;;;;;;4162282;28;20543;-71
2023/02/08 01:49:22;;;;;;;37.55;13.88;;;-6.50;99.90;;;;;;4168205;28;20036;-76
2023/02/08 01:51:27;;;;;;;27.13;11.43;;;-6.50;99.90;;;;;;4178709;28;20028;-74
2023/02/08 01:53:30;;;;;;;31.88;12.65;;;-6.60;99.90;;;;;;4177773;28;20037;-75
2023/02/08 01:55:38;;;;;;;32.30;13.88;;;-6.50;99.90;;;;;;4178025;28;20041;-75
2023/02/08 01:57:41;;;;;;;30.27;13.82;;;-6.60;99.90;;;;;;4160683;28;20115;-74
2023/02/08 01:59:47;;;;;;;33.85;14.10;;;-6.60;99.90;;;;;;4143672;28;20050;-74
2023/02/08 02:01:51;;;;;;;34.35;13.77;;;-6.60;99.90;;;;;;4161394;28;20030;-72
2023/02/08 02:03:52;;;;;;;29.45;13.63;;;-6.60;99.90;;;;;;4160412;28;20045;-75
2023/02/08 02:06:01;;;;;;;30.83;12.60;;;-6.50;99.90;;;;;;4161677;28;20362;-63
2023/02/08 02:08:04;;;;;;;31.15;13.68;;;-6.60;99.90;;;;;;4161580;28;20084;-74
2023/02/08 02:10:38;;;;;;;35.00;12.70;;;-6.60;99.90;;;;;;4161910;28;20029;-63
2023/02/08 02:12:40;;;;;;;31.13;13.05;;;-6.70;99.90;;;;;;4138452;28;20046;-73
2023/02/08 02:14:43;;;;;;;30.73;13.88;;;-6.70;99.90;;;;;;4163974;28;20087;-72
2023/02/08 02:16:44;;;;;;;34.67;13.57;;;-6.70;99.90;;;;;;4177627;28;20017;-73
2023/02/08 02:18:45;;;;;;;31.85;13.15;;;-6.80;99.90;;;;;;4178422;28;20037;-63
2023/02/08 02:21:04;;;;;;;33.25;14.45;;;-6.80;99.90;;;;;;4177352;28;20029;-64
2023/02/08 02:23:08;;;;;;;29.85;12.20;;;-6.80;99.90;;;;;;4178060;28;20504;-63
2023/02/08 02:25:49;;;;;;;28.55;12.88;;;-6.80;99.90;;;;;;4177188;28;20017;-76
2023/02/08 02:28:14;;;;;;;27.38;11.60;;;-6.80;99.90;;;;;;4172048;28;20037;-69
2023/02/08 02:30:34;;;;;;;34.40;13.65;;;-6.80;99.90;;;;;;4161598;28;20107;-65
2023/02/08 02:32:48;;;;;;;32.13;13.45;;;-6.80;99.90;;;;;;4142916;28;20559;-63
2023/02/08 02:34:53;;;;;;;26.65;12.65;;;-6.80;99.90;;;;;;4169011;28;20033;-65
2023/02/08 02:36:57;;;;;;;30.42;13.48;;;-6.90;99.90;;;;;;4158824;28;20678;-63
2023/02/08 02:39:07;;;;;;;33.88;15.27;;;-6.90;99.90;;;;;;4178423;28;20045;-74
2023/02/08 02:43:58;;;;;;;32.28;12.80;;;-6.90;99.90;;;;;;4178142;28;20440;-69
2023/02/08 02:46:11;;;;;;;29.90;13.10;;;-6.80;99.90;;;;;;4176492;28;20021;-75
2023/02/08 02:48:25;;;;;;;35.38;13.45;;;-6.90;99.90;;;;;;4178255;28;20083;-74
2023/02/08 02:50:50;;;;;;;36.88;14.10;;;-6.90;99.90;;;;;;4176966;28;20421;-63
2023/02/08 02:52:59;;;;;;;31.55;13.52;;;-6.80;99.90;;;;;;4177418;28;20033;-63
2023/02/08 02:55:09;;;;;;;27.05;12.90;;;-6.90;99.90;;;;;;4158402;28;20104;-69
2023/02/08 02:57:15;;;;;;;33.38;13.68;;;-6.90;99.90;;;;;;4177827;28;20851;-63
2023/02/08 02:59:16;;;;;;;34.17;15.25;;;-6.90;99.90;;;;;;4176269;28;20082;-63
2023/02/08 03:01:28;;;;;;;33.42;13.27;;;-6.90;99.90;;;;;;4176002;28;20095;-74
2023/02/08 03:03:33;;;;;;;36.45;15.23;;;-7.00;99.90;;;;;;4168495;28;20041;-70
2023/02/08 03:05:34;;;;;;;34.85;15.00;;;-7.00;99.90;;;;;;4160803;28;20454;-64
2023/02/08 03:07:59;;;;;;;31.67;15.02;;;-7.10;99.90;;;;;;4159919;28;20018;-70
2023/02/08 03:10:20;;;;;;;36.78;14.60;;;-7.10;99.90;;;;;;4163633;28;20037;-65
2023/02/08 03:12:51;;;;;;;32.97;13.45;;;-7.10;99.90;;;;;;4151833;28;20088;-70
2023/02/08 03:15:01;;;;;;;36.15;14.63;;;-7.20;99.90;;;;;;4163505;28;20033;-70
2023/02/08 03:17:14;;;;;;;30.85;13.63;;;-7.20;99.90;;;;;;4162529;28;20025;-74
2023/02/08 03:19:51;;;;;;;36.97;13.88;;;-7.20;99.90;;;;;;4163528;28;21022;-64
2023/02/08 03:22:12;;;;;;;27.08;12.50;;;-7.30;99.90;;;;;;4162653;28;20057;-75
2023/02/08 03:24:46;;;;;;;30.95;12.63;;;-7.30;99.90;;;;;;4162474;28;20037;-64
2023/02/08 03:27:05;;;;;;;36.25;15.18;;;-7.40;99.90;;;;;;4129326;28;20120;-76
2023/02/08 03:29:30;;;;;;;30.70;12.77;;;-7.40;99.90;;;;;;4162297;28;20034;-70
2023/02/08 03:31:49;;;;;;;33.05;14.10;;;-7.40;99.90;;;;;;4168518;28;20037;-69
2023/02/08 03:33:57;;;;;;;32.10;13.45;;;-7.50;99.90;;;;;;4162271;28;20033;-63
2023/02/08 03:36:28;;;;;;;33.85;13.70;;;-7.50;99.90;;;;;;4163514;28;20033;-72
2023/02/08 03:38:35;;;;;;;33.10;13.65;;;-7.60;99.90;;;;;;4162200;28;20049;-76
2023/02/08 03:40:43;;;;;;;33.67;13.45;;;-7.60;99.90;;;;;;4163134;28;20072;-73
2023/02/08 03:42:46;;;;;;;30.92;13.30;;;-7.60;99.90;;;;;;4161974;28;20099;-73
2023/02/08 03:44:58;;;;;;;31.52;14.15;;;-7.70;99.90;;;;;;4163287;28;20466;-74
2023/02/08 03:47:13;;;;;;;36.08;14.10;;;-7.70;99.90;;;;;;4162235;28;20107;-75
2023/02/08 03:49:26;;;;;;;34.35;13.85;;;-7.70;99.90;;;;;;4163182;28;20037;-77
2023/02/08 03:51:30;;;;;;;41.67;15.18;;;-7.80;99.90;;;;;;4162165;28;20038;-66
2023/02/08 03:53:37;;;;;;;38.78;15.48;;;-7.80;99.90;;;;;;4163238;28;20468;-76
2023/02/08 03:55:40;;;;;;;36.90;14.40;;;-7.80;99.90;;;;;;4162100;28;20029;-64
2023/02/08 03:58:21;;;;;;;34.60;13.73;;;-7.80;99.90;;;;;;4120263;28;1231324;-63
2023/02/08 04:00:23;;;;;;;34.47;14.38;;;-7.80;99.90;;;;;;4126978;28;20078;-72
2023/02/08 04:02:28;;;;;;;36.65;15.10;;;-7.80;99.90;;;;;;4149262;28;20509;-65
2023/02/08 04:04:33;;;;;;;37.42;15.15;;;-7.80;99.90;;;;;;4162939;28;20447;-64
2023/02/08 04:06:35;;;;;;;32.80;15.23;;;-7.80;99.90;;;;;;4163375;28;20063;-64
2023/02/08 04:08:36;;;;;;;35.63;14.60;;;-7.80;99.90;;;;;;4163389;28;20029;-76
2023/02/08 04:10:37;;;;;;;33.30;14.23;;;-7.80;99.90;;;;;;4164100;28;20053;-63
2023/02/08 04:12:38;;;;;;;38.83;15.27;;;-7.80;99.90;;;;;;4162205;28;20041;-62
2023/02/08 04:14:40;;;;;;;36.00;14.35;;;-7.80;99.90;;;;;;4163834;28;20084;-71
2023/02/08 04:16:41;;;;;;;40.88;15.23;;;-7.80;99.90;;;;;;4162743;28;20473;-63
2023/02/08 04:18:42;;;;;;;39.65;14.82;;;-7.80;99.90;;;;;;4163608;28;20034;-72
2023/02/08 04:20:43;;;;;;;38.03;15.05;;;-7.90;99.90;;;;;;4162268;28;20017;-69
2023/02/08 04:22:44;;;;;;;35.40;14.88;;;-7.80;99.90;;;;;;4163622;28;20025;-67
2023/02/08 04:24:45;;;;;;;33.53;14.43;;;-7.90;99.90;;;;;;4169479;28;20041;-63
2023/02/08 04:26:47;;;;;;;30.15;12.70;;;-7.90;99.90;;;;;;4166651;28;20104;-63
2023/02/08 04:28:48;;;;;;;29.85;12.98;;;-8.00;99.90;;;;;;4179453;28;20044;-67
2023/02/08 04:30:49;;;;;;;33.25;14.40;;;-8.00;99.90;;;;;;4166124;28;20037;-62
2023/02/08 04:32:50;;;;;;;41.63;13.50;;;-8.00;99.90;;;;;;4173349;28;20049;-63
2023/02/08 04:34:51;;;;;;;31.00;14.25;;;-8.00;99.90;;;;;;4178905;28;20046;-63
2023/02/08 04:36:52;;;;;;;32.45;13.57;;;-8.00;99.90;;;;;;4179736;28;20087;-74
2023/02/08 04:38:53;;;;;;;30.13;13.93;;;-8.00;99.90;;;;;;4179110;28;20136;-63
2023/02/08 04:40:54;;;;;;;35.92;14.23;;;-8.10;99.90;;;;;;4179697;28;20540;-69
2023/02/08 04:42:56;;;;;;;38.97;16.90;;;-8.10;99.90;;;;;;4177932;28;20049;-62
2023/02/08 04:44:57;;;;;;;33.30;14.60;;;-8.10;99.90;;;;;;4179628;28;20025;-65
2023/02/08 04:46:59;;;;;;;37.95;16.08;;;-8.10;99.90;;;;;;4178618;28;20029;-62
2023/02/08 04:49:00;;;;;;;35.92;15.45;;;-8.20;99.90;;;;;;4179622;28;20095;-62
2023/02/08 04:51:01;;;;;;;39.65;15.68;;;-8.20;99.90;;;;;;4178253;28;20527;-63
2023/02/08 04:53:02;;;;;;;40.45;15.93;;;-8.10;99.90;;;;;;4179334;28;20028;-66
2023/02/08 04:55:04;;;;;;;34.83;15.68;;;-8.10;99.90;;;;;;4173072;28;20021;-63
2023/02/08 04:57:05;;;;;;;38.38;15.82;;;-8.10;99.90;;;;;;4161837;28;20111;-64
2023/02/08 04:59:06;;;;;;;33.55;14.82;;;-8.10;99.90;;;;;;4163395;28;20104;-63
2023/02/08 05:01:09;;;;;;;36.78;14.95;;;-8.10;99.90;;;;;;4166496;28;20462;-64
2023/02/08 05:03:11;;;;;;;33.78;15.02;;;-8.20;99.90;;;;;;4162793;28;20057;-62
2023/02/08 05:05:12;;;;;;;33.60;15.35;;;-8.20;99.90;;;;;;4171631;28;20095;-62
2023/02/08 05:07:13;;;;;;;31.33;14.50;;;-8.10;99.90;;;;;;4178198;28;20091;-63
2023/02/08 05:09:14;;;;;;;39.45;15.88;;;-8.20;99.90;;;;;;4177856;28;20452;-64
2023/02/08 05:11:23;;;;;;;36.60;15.82;;;-8.20;99.90;;;;;;4174640;28;20539;-63
2023/02/08 05:13:24;;;;;;;43.67;17.38;;;-8.20;99.90;;;;;;4177962;28;20037;-63
2023/02/08 05:15:25;;;;;;;38.55;15.07;;;-8.30;99.90;;;;;;4176119;28;20041;-63
2023/02/08 05:17:26;;;;;;;36.00;14.80;;;-8.30;99.90;;;;;;4173382;28;20041;-62
2023/02/08 05:19:27;;;;;;;35.60;14.93;;;-8.30;99.90;;;;;;4169636;28;20049;-63
2023/02/08 05:21:29;;;;;;;34.00;14.15;;;-8.40;99.90;;;;;;4176455;28;20374;-63
2023/02/08 05:23:31;;;;;;;29.85;14.70;;;-8.40;99.90;;;;;;4169664;28;20056;-64
2023/02/08 05:25:32;;;;;;;33.30;14.10;;;-8.40;99.90;;;;;;4177051;28;20057;-64
2023/02/08 05:27:33;;;;;;;34.55;15.73;;;-8.50;99.90;;;;;;4177981;28;20083;-63
2023/02/08 05:29:35;;;;;;;38.97;15.50;;;-8.50;99.90;;;;;;4178078;28;20044;-63
2023/02/08 05:31:36;;;;;;;43.55;16.67;;;-8.60;99.90;;;;;;4175837;28;20408;-63
2023/02/08 05:33:37;;;;;;;41.47;16.33;;;-8.60;99.90;;;;;;4177470;28;20071;-61
2023/02/08 05:35:38;;;;;;;38.83;17.33;;;-8.70;99.90;;;;;;4176113;28;20030;-68
2023/02/08 05:37:39;;;;;;;41.03;17.73;;;-8.70;99.90;;;;;;4178533;28;20036;-62
2023/02/08 05:39:41;;;;;;;42.00;17.83;;;-8.70;99.90;;;;;;4177650;28;20129;-71
2023/02/08 05:41:42;;;;;;;44.95;18.15;;;-8.70;99.90;;;;;;4177131;28;20029;-71
2023/02/08 05:43:44;;;;;;;45.25;18.45;;;-8.70;99.90;;;;;;4177411;28;20153;-63
2023/02/08 05:45:45;;;;;;;43.67;19.10;;;-8.70;99.90;;;;;;4170428;28;20133;-63
2023/02/08 05:47:46;;;;;;;48.03;19.92;;;-8.70;99.90;;;;;;4161097;28;20021;-74
2023/02/08 05:49:47;;;;;;;44.08;19.63;;;-8.70;99.90;;;;;;4169418;28;20045;-71
2023/02/08 05:51:49;;;;;;;44.67;18.95;;;-8.60;99.90;;;;;;4172973;28;20080;-62
2023/02/08 05:53:50;;;;;;;55.30;20.90;;;-8.60;99.90;;;;;;4161980;28;20041;-62
2023/02/08 05:55:51;;;;;;;44.67;19.65;;;-8.50;99.90;;;;;;4144655;28;20449;-66
2023/02/08 05:57:52;;;;;;;43.17;18.48;;;-8.30;99.90;;;;;;4162069;28;20371;-70
2023/02/08 05:59:54;;;;;;;45.00;20.45;;;-8.20;99.90;;;;;;4169543;28;20490;-63
2023/02/08 06:01:55;;;;;;;53.22;21.63;;;-7.90;99.90;;;;;;4165326;28;20037;-63
2023/02/08 06:03:58;;;;;;;52.55;21.25;;;-7.70;99.90;;;;;;4164460;28;20044;-65
2023/02/08 06:06:00;;;;;;;54.67;23.63;;;-7.40;99.90;;;;;;4172709;28;20099;-65
2023/02/08 06:08:01;;;;;;;44.45;18.33;;;-7.20;99.90;;;;;;4177277;28;20087;-63
2023/02/08 06:10:03;;;;;;;41.67;20.02;;;-7.10;99.90;;;;;;4177038;28;20459;-67
2023/02/08 06:12:04;;;;;;;43.20;20.75;;;-7.00;99.90;;;;;;4178178;28;20035;-65
2023/02/08 06:14:05;;;;;;;40.30;20.77;;;-6.70;99.90;;;;;;4177017;28;20029;-63
2023/02/08 06:16:07;;;;;;;44.00;20.10;;;-6.40;99.90;;;;;;4177981;28;20079;-62
2023/02/08 06:18:08;;;;;;;48.45;19.83;;;-6.30;99.90;;;;;;4176346;28;20045;-64
2023/02/08 06:20:11;;;;;;;47.08;20.20;;;-6.40;99.90;;;;;;4178034;28;20033;-63
2023/02/08 06:22:12;;;;;;;53.42;22.90;;;-6.60;99.90;;;;;;4176803;28;20075;-67
2023/02/08 06:24:15;;;;;;;78.28;32.92;;;-6.70;99.90;;;;;;4178133;28;20432;-65
2023/02/08 06:26:16;;;;;;;74.30;30.95;;;-6.80;99.90;;;;;;4176808;28;20021;-65
2023/02/08 06:28:17;;;;;;;83.72;34.35;;;-6.70;99.90;;;;;;4176336;28;20032;-63
2023/02/08 06:30:18;;;;;;;83.30;35.38;;;-6.60;99.90;;;;;;4175348;28;20444;-71
2023/02/08 06:32:20;;;;;;;81.25;34.28;;;-6.50;99.90;;;;;;4176845;28;20091;-63
2023/02/08 06:34:21;;;;;;;70.75;33.92;;;-6.30;99.90;;;;;;4177190;28;20091;-64
2023/02/08 06:36:22;;;;;;;78.03;34.10;;;-5.80;99.90;;;;;;4176482;28;20037;-63
2023/02/08 06:38:23;;;;;;;79.20;34.28;;;-5.40;99.90;;;;;;4176985;28;20091;-63
2023/02/08 06:40:24;;;;;;;73.20;31.35;;;-5.00;99.90;;;;;;4176525;28;20029;-63
2023/02/08 06:42:26;;;;;;;67.87;30.70;;;-4.80;99.90;;;;;;4177318;28;20359;-64
2023/02/08 06:44:27;;;;;;;60.27;29.30;;;-4.60;99.90;;;;;;4175135;28;20685;-64
2023/02/08 06:46:29;;;;;;;61.53;28.83;;;-4.50;99.90;;;;;;4176303;28;20324;-67
2023/02/08 06:48:30;;;;;;;70.70;29.70;;;-4.20;99.90;;;;;;4176523;28;20661;-63
2023/02/08 06:50:32;;;;;;;71.60;32.13;;;-4.10;99.90;;;;;;4177885;28;20254;-64
2023/02/08 06:52:33;;;;;;;74.67;31.50;;;-4.30;99.90;;;;;;4176118;28;20332;-63
2023/02/08 06:54:34;;;;;;;73.03;30.93;;;-4.50;99.90;;;;;;4177406;28;20665;-63
2023/02/08 06:56:35;;;;;;;67.90;30.50;;;-4.50;99.90;;;;;;4175734;28;20266;-63
2023/02/08 06:58:37;;;;;;;67.83;27.97;;;-4.50;99.90;;;;;;4177506;28;20281;-70
2023/02/08 07:00:38;;;;;;;61.00;27.63;;;-4.40;99.90;;;;;;4176588;28;20319;-63
2023/02/08 07:02:39;;;;;;;56.73;28.13;;;-3.90;99.90;;;;;;4177247;28;20308;-65
2023/02/08 07:04:41;;;;;;;63.27;29.13;;;-3.20;99.90;;;;;;4177456;28;20344;-64
2023/02/08 07:06:42;;;;;;;60.67;27.73;;;-2.70;99.90;;;;;;4177025;28;20274;-71
2023/02/08 07:08:43;;;;;;;60.03;26.13;;;-2.50;99.90;;;;;;4177088;28;20331;-63
2023/02/08 07:10:44;;;;;;;55.93;25.57;;;-2.10;99.90;;;;;;4175879;28;20282;-67
2023/02/08 07:12:46;;;;;;;49.17;24.13;;;-2.10;99.90;;;;;;4177603;28;20323;-63
2023/02/08 07:14:47;;;;;;;52.63;25.53;;;-1.90;99.90;;;;;;4176299;28;20274;-63
2023/02/08 07:16:48;;;;;;;55.33;24.40;;;-1.80;99.90;;;;;;4177309;28;20267;-69
2023/02/08 07:18:49;;;;;;;62.13;24.47;;;-2.00;99.90;;;;;;4175466;28;20816;-63
2023/02/08 07:20:50;;;;;;;67.07;25.07;;;-2.20;99.90;;;;;;4177622;28;20311;-64
2023/02/08 07:22:51;;;;;;;49.10;22.93;;;-2.30;99.90;;;;;;4175519;28;20316;-68
2023/02/08 07:24:53;;;;;;;51.87;24.73;;;-2.10;99.90;;;;;;4177564;28;20316;-63
2023/02/08 07:26:55;;;;;;;53.93;23.30;;;-2.10;99.90;;;;;;4176341;28;20325;-68
2023/02/08 07:28:57;;;;;;;53.33;23.37;;;-1.60;99.90;;;;;;4177365;28;20328;-67
2023/02/08 07:30:58;;;;;;;53.43;25.53;;;-1.10;99.90;;;;;;4176486;28;20262;-63
2023/02/08 07:32:59;;;;;;;48.97;23.67;;;-0.60;99.90;;;;;;4177245;28;20335;-63
2023/02/08 07:35:01;;;;;;;52.37;23.73;;;-0.30;99.90;;;;;;4176613;28;20605;-63
2023/02/08 07:37:02;;;;;;;44.43;18.80;;;-0.20;99.90;;;;;;4176918;28;20270;-63
2023/02/08 07:39:03;;;;;;;40.07;19.17;;;-0.30;99.90;;;;;;4177119;28;20262;-63
2023/02/08 07:41:08;;;;;;;43.63;18.43;;;-0.40;99.90;;;;;;4176538;28;20254;-69
2023/02/08 07:43:09;;;;;;;41.23;17.87;;;-0.40;99.90;;;;;;4177201;28;20266;-64
2023/02/08 07:45:10;;;;;;;47.40;20.77;;;-0.80;99.90;;;;;;4175907;28;20762;-62
2023/02/08 07:47:11;;;;;;;64.97;25.20;;;-0.90;99.90;;;;;;4177490;28;20269;-64
2023/02/08 07:49:12;;;;;;;54.63;24.50;;;-1.20;99.90;;;;;;4176383;28;20681;-63
2023/02/08 07:51:13;;;;;;;48.60;24.90;;;-1.40;99.90;;;;;;4177019;28;20328;-66
2023/02/08 07:53:15;;;;;;;53.67;24.13;;;-1.40;99.90;;;;;;4175911;28;20270;-63
2023/02/08 07:55:16;;;;;;;54.53;27.30;;;-1.40;99.90;;;;;;4179206;28;20274;-64
2023/02/08 07:57:20;;;;;;;53.87;26.13;;;-1.10;99.90;;;;;;4178212;28;20313;-61
2023/02/08 07:59:21;;;;;;;56.57;26.43;;;-1.10;99.90;;;;;;4179629;28;20274;-69
2023/02/08 08:01:23;;;;;;;64.97;27.90;;;-1.10;99.90;;;;;;4178445;28;20335;-63
2023/02/08 08:03:24;;;;;;;55.33;25.97;;;-1.20;99.90;;;;;;4180110;28;20278;-66
2023/02/08 08:05:25;;;;;;;49.00;24.67;;;-1.10;99.90;;;;;;4179798;28;20274;-69
2023/02/08 08:07:26;;;;;;;51.10;25.43;;;-0.80;99.90;;;;;;4179104;28;20734;-70
2023/02/08 08:09:27;;;;;;;56.37;25.83;;;-0.50;99.90;;;;;;4178869;28;20278;-67
2023/02/08 08:11:28;;;;;;;55.37;23.53;;;-0.60;99.90;;;;;;4178648;28;20328;-67
2023/02/08 08:13:29;;;;;;;41.03;21.00;;;-0.90;99.90;;;;;;4179821;28;20303;-64
2023/02/08 08:15:30;;;;;;;44.90;20.17;;;-1.50;99.90;;;;;;4179089;28;20328;-62
2023/02/08 08:17:32;;;;;;;47.03;21.30;;;-2.00;99.90;;;;;;4161840;28;20345;-71
2023/02/08 08:19:33;;;;;;;45.10;21.67;;;-2.40;99.90;;;;;;4178241;28;20335;-63
2023/02/08 08:21:34;;;;;;;39.57;21.30;;;-2.60;99.90;;;;;;4179630;28;20323;-66
2023/02/08 08:23:36;;;;;;;44.67;21.27;;;-2.70;99.90;;;;;;4178677;28;20327;-63
2023/02/08 08:25:37;;;;;;;44.57;21.00;;;-2.70;99.90;;;;;;4179791;28;20311;-62
2023/02/08 08:27:39;;;;;;;41.83;18.80;;;-2.70;99.90;;;;;;4178616;28;20308;-63
2023/02/08 08:29:40;;;;;;;568.87;216.27;;;-2.70;99.90;;;;;;4179675;28;20258;-65
2023/02/08 08:31:43;;;;;;;72.83;31.47;;;-2.80;99.90;;;;;;4177736;28;20669;-62
2023/02/08 08:33:44;;;;;;;44.40;19.73;;;-2.90;99.90;;;;;;4178927;28;20730;-67
2023/02/08 08:35:46;;;;;;;37.87;16.43;;;-2.80;99.90;;;;;;4179232;28;20274;-63
2023/02/08 08:37:47;;;;;;;34.70;16.67;;;-2.70;99.90;;;;;;4178710;28;20685;-62
2023/02/08 08:39:48;;;;;;;30.27;15.43;;;-2.60;99.90;;;;;;4178821;28;20263;-63
2023/02/08 08:41:49;;;;;;;30.30;15.83;;;-2.80;99.90;;;;;;4160717;28;20263;-62
2023/02/08 08:43:50;;;;;;;34.43;16.03;;;-2.80;99.90;;;;;;4178520;28;20302;-63
2023/02/08 08:45:51;;;;;;;30.57;15.33;;;-2.80;99.90;;;;;;4178335;28;20285;-62
2023/02/08 08:47:53;;;;;;;36.20;17.50;;;-2.90;99.90;;;;;;4179609;28;21045;-63
2023/02/08 08:49:54;;;;;;;37.60;17.77;;;-3.00;99.90;;;;;;4178217;28;20270;-63
2023/02/08 08:51:56;;;;;;;35.77;16.67;;;-3.10;99.90;;;;;;4161099;28;20278;-63
2023/02/08 08:53:57;;;;;;;34.73;14.93;;;-3.20;99.90;;;;;;4177521;28;20282;-67
2023/02/08 08:55:58;;;;;;;32.37;15.23;;;-3.30;99.90;;;;;;4179140;28;20576;-63
2023/02/08 08:57:59;;;;;;;37.72;16.88;;;-3.30;99.90;;;;;;4177077;28;20327;-64
2023/02/08 09:00:00;;;;;;;37.47;15.97;;;-3.40;99.90;;;;;;4178815;28;20420;-63
2023/02/08 09:02:01;;;;;;;55.77;18.93;;;-3.40;99.90;;;;;;4177191;28;20327;-63
2023/02/08 09:04:03;;;;;;;44.10;17.77;;;-3.30;99.90;;;;;;4177868;28;20294;-62
2023/02/08 09:06:04;;;;;;;46.47;18.63;;;-3.10;99.90;;;;;;4177531;28;20412;-62
2023/02/08 09:08:05;;;;;;;48.00;18.27;;;-3.00;99.90;;;;;;4178856;28;20331;-63
2023/02/08 09:10:06;;;;;;;45.50;18.67;;;-3.00;99.90;;;;;;4178384;28;20335;-64
2023/02/08 09:12:07;;;;;;;40.80;18.50;;;-3.00;99.90;;;;;;4177811;28;20611;-63
2023/02/08 09:14:09;;;;;;;44.80;18.80;;;-3.00;99.90;;;;;;4178246;28;20701;-63
2023/02/08 09:16:13;;;;;;;44.07;20.33;;;-3.00;99.90;;;;;;4177998;28;20596;-62
2023/02/08 09:18:15;;;;;;;46.17;19.00;;;-2.80;99.90;;;;;;4160325;28;20275;-62
2023/02/08 09:20:16;;;;;;;44.37;17.60;;;-2.80;99.90;;;;;;4177690;28;20664;-66
2023/02/08 09:22:18;;;;;;;40.70;17.33;;;-2.90;99.90;;;;;;4178896;28;20262;-63
2023/02/08 09:24:19;;;;;;;39.47;19.13;;;-3.00;99.90;;;;;;4177736;28;20312;-62
2023/02/08 09:26:24;;;;;;;38.13;17.50;;;-2.90;99.90;;;;;;4178483;28;20274;-63
2023/02/08 09:28:25;;;;;;;35.77;15.43;;;-2.70;99.90;;;;;;4177202;28;20344;-62
2023/02/08 09:30:26;;;;;;;35.70;16.37;;;-2.60;99.90;;;;;;4178748;28;20292;-61
2023/02/08 09:32:32;;;;;;;31.03;14.80;;;-2.60;99.90;;;;;;4177575;28;20304;-64
2023/02/08 09:34:34;;;;;;;36.10;15.43;;;-2.50;99.90;;;;;;4178808;28;20339;-61
2023/02/08 09:36:37;;;;;;;36.30;16.10;;;-2.70;99.90;;;;;;4178133;28;20653;-62
2023/02/08 09:38:39;;;;;;;33.17;15.47;;;-2.60;99.90;;;;;;4178624;28;20266;-64
2023/02/08 09:41:21;;;;;;;38.23;16.47;;;-2.60;99.90;;;;;;4177389;28;20788;-62
2023/02/08 09:43:40;;;;;;;38.97;15.73;;;-2.70;99.90;;;;;;4154556;28;20375;-63
2023/02/08 09:46:06;;;;;;;35.73;16.27;;;-2.70;99.90;;;;;;4177200;28;20780;-64
2023/02/08 09:48:37;;;;;;;30.53;14.73;;;-2.50;99.90;;;;;;4178526;28;20265;-62
2023/02/08 09:51:01;;;;;;;29.05;14.15;;;-2.40;99.90;;;;;;4176794;28;20270;-63
2023/02/08 09:53:05;;;;;;;34.13;14.50;;;-2.50;99.90;;;;;;4136529;28;20033;-62
2023/02/08 09:55:16;;;;;;;37.77;15.43;;;-2.40;99.90;;;;;;4177253;28;20321;-62
2023/02/08 09:57:25;;;;;;;38.77;17.10;;;-2.50;99.90;;;;;;4177440;28;20282;-64
2023/02/08 09:59:30;;;;;;;34.47;14.60;;;-2.60;99.90;;;;;;4177281;28;20278;-63
2023/02/08 10:01:34;;;;;;;36.73;16.00;;;-2.60;99.90;;;;;;4178281;28;20242;-63
2023/02/08 10:03:45;;;;;;;32.83;15.60;;;-2.60;99.90;;;;;;4176922;28;20258;-63
2023/02/08 10:05:46;;;;;;;38.13;16.88;;;-2.50;99.90;;;;;;4178380;28;20391;-63
2023/02/08 10:07:48;;;;;;;56.33;17.03;;;-2.40;99.90;;;;;;4176903;28;20017;-68
2023/02/08 10:09:49;;;;;;;35.33;15.03;;;-2.40;99.90;;;;;;4178076;28;20296;-68
2023/02/08 10:11:56;;;;;;;30.77;13.07;;;-2.40;99.90;;;;;;4176690;28;20316;-65
2023/02/08 10:14:12;;;;;;;34.67;14.33;;;-2.30;99.90;;;;;;4178318;28;20657;-62
2023/02/08 10:16:34;;;;;;;34.87;15.63;;;-2.30;99.90;;;;;;4176808;28;20262;-62
2023/02/08 10:18:43;;;;;;;35.40;14.60;;;-2.30;99.90;;;;;;4176833;28;20266;-63
2023/02/08 10:21:09;;;;;;;30.33;13.60;;;-2.20;99.90;;;;;;4176873;28;20660;-63
2023/02/08 10:23:48;;;;;;;37.23;15.80;;;-2.20;99.90;;;;;;4177758;28;20328;-63
2023/02/08 10:26:05;;;;;;;35.87;15.13;;;-2.10;99.90;;;;;;4177518;28;20294;-63
2023/02/08 10:28:21;;;;;;;32.07;13.27;;;-2.00;99.90;;;;;;4176992;28;20308;-63
2023/02/08 10:30:34;;;;;;;25.00;13.17;;;-1.90;99.90;;;;;;4177788;28;20266;-64
2023/02/08 10:32:56;;;;;;;31.93;13.23;;;-1.90;99.90;;;;;;4176856;28;20275;-63
2023/02/08 10:35:38;;;;;;;30.93;13.77;;;-2.00;99.90;;;;;;4177933;28;20274;-63